Time;durP1;ratioP1;P1;durP2;ratioP2;P2;SDS_P1;SDS_P2;PMS_P1;PMS_P2;Temp;Humidity;BMP_temperature;BMP_pressure;BME280_temperature;BME280_humidity;BME280_pressure;Samples;Min_cycle;Max_cycle;Signal;HPM_P1;HPM_P2
2022/05/12 00:00:18;;;;;;;13.50;3.90;;;;;;;;;;5033416;28;20379;-53
2022/05/12 00:02:45;;;;;;;10.60;3.88;;;;;;;;;;5032572;28;20511;-55
2022/05/12 00:05:11;;;;;;;13.75;3.80;;;;;;;;;;5033112;28;20461;-53
2022/05/12 00:07:37;;;;;;;12.13;3.95;;;;;;;;;;5033324;28;20398;-53
2022/05/12 00:10:05;;;;;;;13.43;4.00;;;;;;;;;;5033951;28;20383;-54
2022/05/12 00:12:31;;;;;;;12.45;3.65;;;;;;;;;;5032824;28;20615;-51
2022/05/12 00:15:09;;;;;;;11.95;3.60;;;;;;;;;;5031964;28;20389;-56
2022/05/12 00:17:35;;;;;;;13.80;4.03;;;;;;;;;;5030989;28;20677;-54
2022/05/12 00:20:00;;;;;;;13.57;4.10;;;;;;;;;;5032653;28;20395;-53
2022/05/12 00:22:27;;;;;;;15.87;4.40;;;;;;;;;;5031966;28;20453;-54
2022/05/12 00:24:53;;;;;;;10.73;3.78;;;;;;;;;;5033124;28;20663;-53
2022/05/12 00:27:19;;;;;;;11.13;3.90;;;;;;;;;;5031795;28;20993;-51
2022/05/12 00:29:45;;;;;;;12.00;3.50;;;;;;;;;;5032924;28;20395;-56
2022/05/12 00:32:10;;;;;;;8.23;3.42;;;;;;;;;;5034395;28;20672;-50
2022/05/12 00:34:36;;;;;;;8.65;3.28;;;;;;;;;;5033767;28;20498;-52
2022/05/12 00:37:03;;;;;;;8.75;3.47;;;;;;;;;;5032558;28;20387;-51
2022/05/12 00:39:29;;;;;;;7.80;3.17;;;;;;;;;;5032672;28;20383;-53
2022/05/12 00:41:55;;;;;;;8.90;3.25;;;;;;;;;;5032939;28;20375;-53
2022/05/12 00:44:20;;;;;;;11.23;3.27;;;;;;;;;;5032710;28;20441;-51
2022/05/12 00:46:50;;;;;;;13.03;3.47;;;;;;;;;;5033459;28;20656;-53
2022/05/12 00:49:38;;;;;;;10.48;3.53;;;;;;;;;;5034493;28;20386;-52
2022/05/12 00:52:12;;;;;;;9.73;3.58;;;;;;;;;;5033298;28;20386;-54
2022/05/12 00:54:40;;;;;;;10.60;3.25;;;;;;;;;;5051179;28;20508;-54
2022/05/12 00:57:08;;;;;;;13.75;3.35;;;;;;;;;;5035172;28;20700;-53
2022/05/12 00:59:35;;;;;;;9.73;3.67;;;;;;;;;;5053537;28;20741;-53
2022/05/12 01:02:02;;;;;;;10.27;3.70;;;;;;;;;;5036144;28;21022;-51
2022/05/12 01:04:29;;;;;;;8.57;3.47;;;;;;;;;;5054461;28;20413;-51
2022/05/12 01:06:56;;;;;;;9.85;3.58;;;;;;;;;;5033400;28;20393;-53
2022/05/12 01:09:22;;;;;;;9.23;3.85;;;;;;;;;;5034742;28;20369;-50
2022/05/12 01:11:49;;;;;;;11.70;3.92;;;;;;;;;;5052167;28;20385;-49
2022/05/12 01:14:15;;;;;;;12.25;3.70;;;;;;;;;;5052750;28;20405;-56
2022/05/12 01:16:42;;;;;;;11.27;3.58;;;;;;;;;;5034089;28;20377;-55
2022/05/12 01:19:11;;;;;;;9.55;3.63;;;;;;;;;;5035528;28;20395;-51
2022/05/12 01:21:37;;;;;;;8.93;3.45;;;;;;;;;;5036391;28;20390;-53
2022/05/12 01:24:03;;;;;;;8.95;3.60;;;;;;;;;;5053389;28;20375;-55
2022/05/12 01:26:29;;;;;;;10.30;3.80;;;;;;;;;;5052693;28;20396;-54
2022/05/12 01:28:55;;;;;;;9.60;3.47;;;;;;;;;;5036834;28;20386;-54
2022/05/12 01:31:22;;;;;;;9.93;3.30;;;;;;;;;;5036363;28;20394;-56
2022/05/12 01:33:51;;;;;;;9.00;3.75;;;;;;;;;;5035154;28;20983;-56
2022/05/12 01:36:18;;;;;;;9.43;3.83;;;;;;;;;;5054099;28;20438;-52
2022/05/12 01:38:44;;;;;;;9.43;3.83;;;;;;;;;;5035150;28;20377;-54
2022/05/12 01:41:10;;;;;;;12.20;4.25;;;;;;;;;;5034373;28;20386;-54
2022/05/12 01:43:36;;;;;;;10.02;3.60;;;;;;;;;;5051394;28;20473;-55
2022/05/12 01:46:02;;;;;;;9.90;3.88;;;;;;;;;;5033794;28;20397;-52
2022/05/12 01:48:28;;;;;;;12.10;4.32;;;;;;;;;;5034006;28;20504;-56
2022/05/12 01:50:55;;;;;;;7.78;3.65;;;;;;;;;;5033686;28;20408;-55
2022/05/12 01:53:21;;;;;;;8.73;3.53;;;;;;;;;;5034197;28;21000;-50
2022/05/12 01:55:48;;;;;;;9.13;3.25;;;;;;;;;;5034357;28;20820;-56
2022/05/12 01:58:15;;;;;;;10.45;3.22;;;;;;;;;;5036680;28;20461;-55
2022/05/12 02:00:41;;;;;;;8.38;3.45;;;;;;;;;;5037912;28;20386;-54
2022/05/12 02:03:07;;;;;;;8.85;3.20;;;;;;;;;;5037821;28;20407;-52
2022/05/12 02:05:34;;;;;;;6.50;2.93;;;;;;;;;;5036508;28;20425;-51
2022/05/12 02:08:00;;;;;;;8.90;2.88;;;;;;;;;;5035750;28;20635;-54
2022/05/12 02:10:28;;;;;;;6.25;2.65;;;;;;;;;;5035694;28;20386;-54
2022/05/12 02:12:54;;;;;;;4.63;2.35;;;;;;;;;;5035596;28;20421;-54
2022/05/12 02:15:21;;;;;;;5.40;2.45;;;;;;;;;;5035404;28;20409;-56
2022/05/12 02:17:49;;;;;;;4.15;2.20;;;;;;;;;;5034676;28;20817;-50
2022/05/12 02:20:15;;;;;;;5.90;2.08;;;;;;;;;;5050252;28;20722;-55
2022/05/12 02:22:42;;;;;;;4.90;2.20;;;;;;;;;;5048985;28;20427;-53
2022/05/12 02:25:09;;;;;;;7.70;2.40;;;;;;;;;;5032498;28;20398;-55
2022/05/12 02:27:35;;;;;;;5.57;2.30;;;;;;;;;;5031424;28;20384;-53
2022/05/12 02:30:01;;;;;;;5.30;2.60;;;;;;;;;;5032777;28;20377;-51
2022/05/12 02:32:27;;;;;;;6.55;2.65;;;;;;;;;;5032435;28;20393;-51
2022/05/12 02:34:54;;;;;;;6.22;2.55;;;;;;;;;;5035637;28;20389;-54
2022/05/12 02:37:20;;;;;;;7.18;2.88;;;;;;;;;;5052091;28;20725;-53
2022/05/12 02:39:46;;;;;;;6.43;2.65;;;;;;;;;;5034380;28;20713;-54
2022/05/12 02:42:12;;;;;;;6.30;2.92;;;;;;;;;;5051827;28;20798;-53
2022/05/12 02:44:38;;;;;;;5.37;3.00;;;;;;;;;;5037939;28;20393;-56
2022/05/12 02:47:07;;;;;;;6.80;2.92;;;;;;;;;;5053718;28;20394;-54
2022/05/12 02:49:33;;;;;;;4.50;2.60;;;;;;;;;;5034529;28;20726;-51
2022/05/12 02:51:59;;;;;;;6.05;3.20;;;;;;;;;;5032435;28;20381;-55
2022/05/12 02:54:25;;;;;;;7.13;2.70;;;;;;;;;;5029871;28;20686;-52
2022/05/12 02:56:54;;;;;;;3.80;1.70;;;;;;;;;;5029271;28;20448;-52
2022/05/12 02:59:20;;;;;;;3.38;1.70;;;;;;;;;;5028093;28;20410;-50
2022/05/12 03:01:46;;;;;;;3.47;1.57;;;;;;;;;;5028710;28;20387;-52
2022/05/12 03:04:12;;;;;;;3.03;1.07;;;;;;;;;;5027065;28;20602;-55
2022/05/12 03:06:38;;;;;;;3.27;1.20;;;;;;;;;;5027307;28;20727;-55
2022/05/12 03:09:04;;;;;;;2.90;0.93;;;;;;;;;;5025727;28;20399;-53
2022/05/12 03:11:30;;;;;;;2.75;1.38;;;;;;;;;;5027523;28;20379;-53
2022/05/12 03:13:59;;;;;;;3.15;1.35;;;;;;;;;;5028385;28;20445;-53
2022/05/12 03:16:25;;;;;;;4.13;1.27;;;;;;;;;;5026790;28;20862;-52
2022/05/12 03:18:53;;;;;;;3.78;1.20;;;;;;;;;;5025756;28;20834;-54
2022/05/12 03:21:20;;;;;;;3.90;1.15;;;;;;;;;;5030535;28;20660;-51
2022/05/12 03:23:46;;;;;;;2.20;1.00;;;;;;;;;;5032152;28;20802;-54
2022/05/12 03:26:13;;;;;;;2.42;1.35;;;;;;;;;;5033772;28;20586;-52
2022/05/12 03:28:39;;;;;;;3.22;1.27;;;;;;;;;;5035141;28;20473;-52
2022/05/12 03:31:05;;;;;;;1.85;1.13;;;;;;;;;;5035953;28;20383;-50
2022/05/12 03:33:32;;;;;;;3.08;1.50;;;;;;;;;;5034841;28;20423;-56
2022/05/12 03:35:58;;;;;;;3.40;1.48;;;;;;;;;;5036119;28;20379;-52
2022/05/12 03:38:25;;;;;;;3.10;1.40;;;;;;;;;;5037332;28;20410;-51
2022/05/12 03:40:51;;;;;;;4.25;1.50;;;;;;;;;;5034741;28;20387;-51
2022/05/12 03:46:01;;;;;;;3.40;1.50;;;;;;;;;;5036601;28;20374;-52
2022/05/12 03:48:27;;;;;;;3.53;1.52;;;;;;;;;;5035117;28;20394;-54
2022/05/12 03:53:57;;;;;;;4.60;1.70;;;;;;;;;;5047515;28;20491;-54
2022/05/12 03:56:23;;;;;;;6.78;2.28;;;;;;;;;;5052029;28;20378;-51
2022/05/12 03:58:49;;;;;;;3.78;1.60;;;;;;;;;;5054306;28;20373;-56
2022/05/12 04:01:16;;;;;;;5.57;1.70;;;;;;;;;;5036613;28;20420;-53
2022/05/12 04:03:42;;;;;;;6.10;1.80;;;;;;;;;;5036194;28;20416;-56
2022/05/12 04:06:08;;;;;;;4.65;1.80;;;;;;;;;;5051880;28;20374;-53
2022/05/12 04:08:35;;;;;;;5.35;1.63;;;;;;;;;;5034524;28;20393;-54
2022/05/12 04:11:01;;;;;;;5.75;1.70;;;;;;;;;;5034723;28;20447;-55
2022/05/12 04:13:27;;;;;;;4.47;1.92;;;;;;;;;;5036689;28;20409;-52
2022/05/12 04:15:53;;;;;;;4.90;1.80;;;;;;;;;;5036735;28;20411;-54
2022/05/12 04:18:20;;;;;;;6.40;2.17;;;;;;;;;;5035107;28;20409;-50
2022/05/12 04:20:46;;;;;;;5.40;1.90;;;;;;;;;;5035607;28;20420;-53
2022/05/12 04:23:12;;;;;;;8.88;2.25;;;;;;;;;;5054300;28;20711;-56
2022/05/12 04:25:38;;;;;;;6.43;2.47;;;;;;;;;;5038488;28;20388;-54
2022/05/12 04:28:05;;;;;;;6.32;2.55;;;;;;;;;;5040555;28;20386;-53
2022/05/12 04:30:31;;;;;;;7.72;2.70;;;;;;;;;;5040847;28;20397;-53
2022/05/12 04:35:42;;;;;;;7.75;2.72;;;;;;;;;;5057897;28;20405;-55
2022/05/12 04:38:10;;;;;;;7.95;2.65;;;;;;;;;;5040380;28;20462;-56
2022/05/12 04:40:36;;;;;;;6.78;2.65;;;;;;;;;;5039302;28;20464;-55
2022/05/12 04:43:02;;;;;;;6.07;2.43;;;;;;;;;;5038730;28;20488;-54
2022/05/12 04:45:29;;;;;;;8.33;2.90;;;;;;;;;;5039652;28;20437;-51
2022/05/12 04:47:56;;;;;;;7.50;2.60;;;;;;;;;;5039325;28;20401;-55
2022/05/12 04:50:24;;;;;;;6.90;2.63;;;;;;;;;;5038541;28;20472;-53
2022/05/12 04:52:50;;;;;;;9.10;2.50;;;;;;;;;;5038882;28;20831;-55
2022/05/12 04:55:16;;;;;;;6.47;2.40;;;;;;;;;;5038267;28;20419;-56
2022/05/12 04:57:43;;;;;;;8.85;2.65;;;;;;;;;;5055680;28;20377;-54
2022/05/12 05:00:14;;;;;;;9.85;3.00;;;;;;;;;;5038482;28;20642;-55
2022/05/12 05:02:41;;;;;;;11.57;3.17;;;;;;;;;;5038981;28;20390;-54
2022/05/12 05:05:07;;;;;;;8.82;2.63;;;;;;;;;;5036827;28;20388;-53
2022/05/12 05:07:33;;;;;;;9.60;3.17;;;;;;;;;;5037918;28;20393;-54
2022/05/12 05:09:59;;;;;;;10.57;2.90;;;;;;;;;;5038252;28;20373;-54
2022/05/12 05:12:25;;;;;;;8.00;3.33;;;;;;;;;;5038695;28;20451;-55
2022/05/12 05:14:52;;;;;;;12.93;3.40;;;;;;;;;;5038089;28;20875;-52
2022/05/12 05:17:18;;;;;;;10.20;2.80;;;;;;;;;;5038522;28;20870;-52
2022/05/12 05:19:44;;;;;;;6.78;2.72;;;;;;;;;;5039129;28;20408;-53
2022/05/12 05:22:10;;;;;;;6.22;2.53;;;;;;;;;;5038899;28;20444;-52
2022/05/12 05:24:36;;;;;;;6.10;2.47;;;;;;;;;;5038920;28;20386;-57
2022/05/12 05:27:02;;;;;;;8.82;2.80;;;;;;;;;;5038546;28;20392;-53
2022/05/12 05:29:28;;;;;;;10.38;2.60;;;;;;;;;;5038655;28;20413;-53
2022/05/12 05:31:54;;;;;;;8.77;2.70;;;;;;;;;;5038277;28;20472;-52
2022/05/12 05:34:20;;;;;;;8.30;2.58;;;;;;;;;;5037958;28;20417;-52
2022/05/12 05:36:46;;;;;;;9.80;2.83;;;;;;;;;;5036050;28;20381;-53
2022/05/12 05:39:22;;;;;;;9.18;2.80;;;;;;;;;;5034840;28;20382;-49
2022/05/12 05:42:06;;;;;;;6.85;2.55;;;;;;;;;;5034806;28;20397;-54
2022/05/12 05:44:32;;;;;;;10.13;2.72;;;;;;;;;;5030277;28;20793;-54
2022/05/12 05:47:08;;;;;;;7.70;2.40;;;;;;;;;;5029191;28;20451;-51
2022/05/12 05:49:41;;;;;;;10.88;2.70;;;;;;;;;;5029473;28;20674;-52
2022/05/12 05:54:52;;;;;;;8.45;2.70;;;;;;;;;;5046478;28;20440;-53
2022/05/12 05:57:23;;;;;;;10.80;3.17;;;;;;;;;;5030385;28;20816;-55
2022/05/12 05:59:49;;;;;;;7.97;3.15;;;;;;;;;;5029919;28;20663;-54
2022/05/12 06:02:15;;;;;;;8.90;2.40;;;;;;;;;;5032567;28;20904;-50
2022/05/12 06:04:41;;;;;;;9.43;2.78;;;;;;;;;;5036312;28;20843;-52
2022/05/12 06:07:07;;;;;;;9.10;2.92;;;;;;;;;;5054042;28;20393;-55
2022/05/12 06:09:34;;;;;;;7.75;2.42;;;;;;;;;;5036397;28;20396;-52
2022/05/12 06:12:00;;;;;;;7.65;2.47;;;;;;;;;;5053116;28;20423;-50
2022/05/12 06:14:26;;;;;;;8.93;2.47;;;;;;;;;;5035233;28;20452;-53
2022/05/12 06:16:52;;;;;;;7.18;2.30;;;;;;;;;;5033227;28;20801;-53
2022/05/12 06:19:19;;;;;;;9.10;2.92;;;;;;;;;;5033354;28;20845;-53
2022/05/12 06:21:45;;;;;;;7.30;2.53;;;;;;;;;;5033070;28;20725;-55
2022/05/12 06:24:11;;;;;;;9.50;2.78;;;;;;;;;;5032036;28;20389;-52
2022/05/12 06:26:37;;;;;;;6.63;2.20;;;;;;;;;;5029341;28;20390;-52
2022/05/12 06:29:03;;;;;;;9.02;2.95;;;;;;;;;;5033046;28;20381;-52
2022/05/12 06:31:33;;;;;;;9.40;2.60;;;;;;;;;;5050997;28;20384;-54
2022/05/12 06:34:00;;;;;;;12.93;3.10;;;;;;;;;;5051779;28;20475;-52
2022/05/12 06:36:28;;;;;;;9.75;3.08;;;;;;;;;;5034558;28;20409;-56
2022/05/12 06:38:54;;;;;;;10.40;3.20;;;;;;;;;;5035361;28;20382;-52
2022/05/12 06:41:20;;;;;;;10.77;3.35;;;;;;;;;;5034528;28;20416;-54
2022/05/12 06:43:46;;;;;;;9.80;2.65;;;;;;;;;;5035781;28;20456;-54
2022/05/12 06:46:17;;;;;;;10.40;3.30;;;;;;;;;;5036892;28;20455;-53
2022/05/12 06:48:44;;;;;;;9.43;2.90;;;;;;;;;;5036075;28;20397;-56
2022/05/12 06:51:11;;;;;;;8.53;2.90;;;;;;;;;;5053696;28;20447;-55
2022/05/12 06:53:37;;;;;;;7.93;2.60;;;;;;;;;;5036370;28;20421;-56
2022/05/12 06:56:03;;;;;;;9.20;2.63;;;;;;;;;;5035991;28;20785;-52
2022/05/12 06:58:29;;;;;;;7.22;2.30;;;;;;;;;;5036238;28;20929;-55
2022/05/12 07:00:55;;;;;;;5.63;2.30;;;;;;;;;;5035790;28;20415;-54
2022/05/12 07:03:21;;;;;;;6.20;2.47;;;;;;;;;;5051930;28;20393;-55
2022/05/12 07:05:47;;;;;;;6.93;1.92;;;;;;;;;;5053295;28;20381;-54
2022/05/12 07:08:15;;;;;;;7.60;2.33;;;;;;;;;;5035138;28;20392;-52
2022/05/12 07:10:41;;;;;;;9.23;2.40;;;;;;;;;;5035158;28;20413;-53
2022/05/12 07:13:07;;;;;;;6.72;2.33;;;;;;;;;;5034617;28;20445;-56
2022/05/12 07:15:33;;;;;;;6.80;2.13;;;;;;;;;;5053017;28;20468;-55
2022/05/12 07:17:59;;;;;;;8.00;2.40;;;;;;;;;;5036150;28;20397;-55
2022/05/12 07:28:40;;;;;;;6.72;1.83;;;;;;;;;;5052259;28;20376;-54
2022/05/12 07:31:09;;;;;;;6.97;2.40;;;;;;;;;;5035469;28;20389;-54
2022/05/12 07:33:42;;;;;;;6.45;2.17;;;;;;;;;;5036184;28;20413;-54
2022/05/12 07:36:11;;;;;;;5.40;2.03;;;;;;;;;;5036483;28;20774;-56
2022/05/12 07:38:38;;;;;;;5.15;2.17;;;;;;;;;;5052064;28;20379;-56
2022/05/12 07:41:09;;;;;;;6.75;1.83;;;;;;;;;;5033966;28;20469;-51
2022/05/12 07:43:36;;;;;;;6.17;2.40;;;;;;;;;;5049836;28;20389;-54
2022/05/12 07:46:02;;;;;;;7.78;2.53;;;;;;;;;;5036344;28;20393;-53
2022/05/12 07:48:28;;;;;;;4.60;2.30;;;;;;;;;;5034282;28;20459;-55
2022/05/12 07:50:55;;;;;;;5.25;1.70;;;;;;;;;;5033571;28;20747;-54
2022/05/12 07:53:22;;;;;;;6.18;2.28;;;;;;;;;;5031963;28;20971;-55
2022/05/12 07:55:49;;;;;;;6.30;1.95;;;;;;;;;;5031723;28;20419;-53
2022/05/12 07:58:15;;;;;;;5.68;2.00;;;;;;;;;;5030308;28;20458;-55
2022/05/12 08:00:42;;;;;;;5.13;2.10;;;;;;;;;;5030220;28;20415;-54
2022/05/12 08:03:09;;;;;;;6.87;2.70;;;;;;;;;;5030927;28;20680;-55
2022/05/12 08:05:36;;;;;;;7.68;2.83;;;;;;;;;;5031815;28;20521;-55
2022/05/12 08:11:15;;;;;;;7.07;2.90;;;;;;;;;;5034932;28;20367;-61
2022/05/12 08:13:48;;;;;;;6.95;2.70;;;;;;;;;;5034502;28;20411;-61
2022/05/12 08:16:16;;;;;;;4.20;2.00;;;;;;;;;;5034848;28;21336;-61
2022/05/12 08:18:44;;;;;;;5.78;2.45;;;;;;;;;;5033780;28;20791;-61
2022/05/12 08:21:10;;;;;;;5.43;2.23;;;;;;;;;;5032320;28;20469;-61
2022/05/12 08:23:36;;;;;;;4.57;1.73;;;;;;;;;;5033218;28;20786;-61
2022/05/12 08:26:03;;;;;;;7.00;2.10;;;;;;;;;;5031111;28;21070;-61
2022/05/12 08:28:29;;;;;;;3.90;1.40;;;;;;;;;;5031282;28;20386;-61
2022/05/12 08:30:55;;;;;;;5.38;1.73;;;;;;;;;;5029433;28;20378;-61
2022/05/12 08:33:22;;;;;;;5.13;1.90;;;;;;;;;;5031720;28;20430;-61
2022/05/12 08:35:48;;;;;;;6.85;2.22;;;;;;;;;;5032756;28;20777;-61
2022/05/12 08:38:45;;;;;;;5.22;1.95;;;;;;;;;;5028517;28;20387;-61
2022/05/12 08:41:30;;;;;;;4.07;1.73;;;;;;;;;;5026262;28;20756;-61
2022/05/12 08:43:56;;;;;;;7.55;1.70;;;;;;;;;;5026336;28;20375;-61
2022/05/12 08:46:24;;;;;;;3.78;1.80;;;;;;;;;;5027823;28;20393;-61
2022/05/12 08:48:53;;;;;;;5.00;1.93;;;;;;;;;;5025808;28;20766;-61
2022/05/12 08:51:22;;;;;;;5.72;1.88;;;;;;;;;;5022978;28;20488;-62
2022/05/12 08:54:03;;;;;;;5.50;1.80;;;;;;;;;;5020044;28;20613;-61
2022/05/12 08:56:36;;;;;;;5.50;1.70;;;;;;;;;;5021842;28;20805;-61
2022/05/12 08:59:33;;;;;;;6.28;1.63;;;;;;;;;;5020785;28;20492;-61
2022/05/12 09:02:14;;;;;;;6.43;1.83;;;;;;;;;;5021207;28;20410;-62
2022/05/12 09:05:00;;;;;;;5.43;1.90;;;;;;;;;;5023215;28;20379;-61
2022/05/12 09:07:29;;;;;;;4.82;1.50;;;;;;;;;;5023152;28;20574;-62
2022/05/12 09:10:01;;;;;;;9.32;1.63;;;;;;;;;;5023201;28;20539;-51
2022/05/12 09:12:27;;;;;;;4.13;1.45;;;;;;;;;;5023207;28;20395;-50
2022/05/12 09:15:30;;;;;;;4.90;1.48;;;;;;;;;;5023359;28;20445;-53
2022/05/12 09:18:01;;;;;;;4.40;1.60;;;;;;;;;;4945365;28;20740;-52
2022/05/12 09:20:30;;;;;;;4.95;1.63;;;;;;;;;;5008377;28;20994;-53
2022/05/12 09:22:56;;;;;;;3.75;1.73;;;;;;;;;;5026189;28;20963;-55
2022/05/12 09:25:30;;;;;;;3.92;1.45;;;;;;;;;;5032028;28;20379;-51
2022/05/12 09:31:01;;;;;;;3.97;1.42;;;;;;;;;;5033015;28;20651;-53
2022/05/12 09:33:47;;;;;;;4.60;1.70;;;;;;;;;;5032307;28;20414;-51
2022/05/12 09:36:25;;;;;;;5.22;1.67;;;;;;;;;;5032387;28;20395;-53
2022/05/12 09:38:54;;;;;;;4.63;1.67;;;;;;;;;;5033092;28;20380;-54
2022/05/12 09:41:39;;;;;;;5.07;1.42;;;;;;;;;;5033246;28;20367;-50
2022/05/12 09:44:18;;;;;;;4.75;1.50;;;;;;;;;;5031675;28;20478;-56
2022/05/12 09:46:54;;;;;;;3.10;1.48;;;;;;;;;;5031786;28;20402;-54
2022/05/12 09:49:23;;;;;;;4.85;1.33;;;;;;;;;;5031148;28;20396;-52
2022/05/12 09:51:49;;;;;;;4.45;1.58;;;;;;;;;;5032163;28;20395;-54
2022/05/12 09:54:25;;;;;;;7.17;1.57;;;;;;;;;;5030760;28;20775;-54
2022/05/12 09:57:03;;;;;;;7.22;1.52;;;;;;;;;;5033152;28;20386;-55
2022/05/12 09:59:31;;;;;;;3.78;1.25;;;;;;;;;;5032718;28;20821;-55
2022/05/12 10:02:01;;;;;;;4.13;1.50;;;;;;;;;;5032007;28;20397;-54
2022/05/12 10:10:26;;;;;;;9.73;1.30;;;;;;;;;;5020882;28;20390;-52
2022/05/12 10:13:01;;;;;;;5.60;1.30;;;;;;;;;;5030075;28;20464;-54
2022/05/12 10:15:31;;;;;;;6.07;1.38;;;;;;;;;;5031244;28;21106;-54
2022/05/12 10:18:09;;;;;;;5.13;1.70;;;;;;;;;;5031144;28;20466;-55
2022/05/12 10:20:37;;;;;;;3.97;1.20;;;;;;;;;;5029786;28;20390;-55
2022/05/12 10:23:03;;;;;;;5.82;1.50;;;;;;;;;;5030205;28;20390;-55
2022/05/12 10:26:03;;;;;;;3.88;1.40;;;;;;;;;;5030232;28;20387;-55
2022/05/12 10:28:48;;;;;;;3.15;1.25;;;;;;;;;;5030113;28;20485;-56
2022/05/12 10:31:17;;;;;;;7.07;1.48;;;;;;;;;;5031340;28;20388;-53
2022/05/12 10:33:53;;;;;;;5.22;1.50;;;;;;;;;;5029188;28;20719;-56
2022/05/12 10:36:28;;;;;;;3.28;1.00;;;;;;;;;;5027736;28;20457;-56
2022/05/12 10:39:12;;;;;;;5.72;1.20;;;;;;;;;;5029084;28;20513;-56
2022/05/12 10:41:44;;;;;;;5.85;1.30;;;;;;;;;;5029479;28;20402;-52
2022/05/12 10:44:14;;;;;;;3.53;1.10;;;;;;;;;;5028444;28;20503;-56
2022/05/12 10:46:56;;;;;;;6.60;1.27;;;;;;;;;;5027442;28;20477;-56
2022/05/12 10:49:23;;;;;;;3.65;1.27;;;;;;;;;;5029710;28;20417;-54
2022/05/12 10:52:08;;;;;;;4.03;1.50;;;;;;;;;;5028964;28;20398;-52
2022/05/12 10:54:40;;;;;;;3.63;1.20;;;;;;;;;;5029599;28;20475;-54
2022/05/12 10:57:44;;;;;;;3.40;1.50;;;;;;;;;;5029907;28;20493;-54
2022/05/12 11:00:35;;;;;;;4.53;1.30;;;;;;;;;;5029684;28;20409;-56
2022/05/12 11:03:05;;;;;;;4.90;1.50;;;;;;;;;;5020109;28;20390;-54
2022/05/12 11:05:37;;;;;;;4.50;1.40;;;;;;;;;;5029022;28;20391;-56
2022/05/12 11:08:04;;;;;;;4.47;1.17;;;;;;;;;;5028586;28;20390;-56
2022/05/12 11:10:49;;;;;;;4.35;1.40;;;;;;;;;;5027607;28;20383;-52
2022/05/12 11:13:18;;;;;;;4.77;1.30;;;;;;;;;;5029482;28;20434;-53
2022/05/12 11:15:44;;;;;;;5.00;1.80;;;;;;;;;;5029432;28;20390;-56
2022/05/12 11:18:17;;;;;;;3.10;1.20;;;;;;;;;;5029428;28;20383;-53
2022/05/12 11:20:45;;;;;;;4.03;1.40;;;;;;;;;;5029032;28;20383;-51
2022/05/12 11:23:29;;;;;;;3.65;1.20;;;;;;;;;;5031152;28;20470;-53
2022/05/12 11:25:55;;;;;;;5.87;1.50;;;;;;;;;;5030522;28;20375;-56
2022/05/12 11:31:19;;;;;;;4.47;1.40;;;;;;;;;;5031583;28;20398;-56
2022/05/12 11:33:49;;;;;;;4.32;1.42;;;;;;;;;;5030214;28;20415;-55
2022/05/12 11:36:16;;;;;;;2.97;1.50;;;;;;;;;;5030846;28;20442;-56
2022/05/12 11:38:53;;;;;;;4.13;1.50;;;;;;;;;;5030807;28;20461;-56
2022/05/12 11:41:19;;;;;;;3.15;1.30;;;;;;;;;;5031777;28;20529;-54
2022/05/12 11:46:49;;;;;;;4.35;1.20;;;;;;;;;;5033263;28;20366;-53
2022/05/12 11:49:15;;;;;;;4.97;1.30;;;;;;;;;;5031464;28;20399;-55
2022/05/12 11:51:49;;;;;;;3.60;1.30;;;;;;;;;;5033830;28;20410;-52
2022/05/12 11:54:21;;;;;;;4.83;1.50;;;;;;;;;;5032577;28;20474;-55
2022/05/12 11:56:57;;;;;;;6.47;1.53;;;;;;;;;;5033071;28;20882;-56
2022/05/12 11:59:43;;;;;;;5.22;1.17;;;;;;;;;;5033595;28;20390;-55
2022/05/12 12:02:28;;;;;;;4.68;1.60;;;;;;;;;;5031264;28;20414;-55
2022/05/12 12:04:55;;;;;;;3.00;1.30;;;;;;;;;;5034168;28;20489;-54
2022/05/12 12:07:21;;;;;;;4.25;1.30;;;;;;;;;;5032453;28;20417;-53
2022/05/12 12:09:52;;;;;;;4.20;1.38;;;;;;;;;;5031884;28;20383;-55
2022/05/12 12:12:38;;;;;;;3.75;1.30;;;;;;;;;;5027466;28;20578;-53
2022/05/12 12:15:05;;;;;;;4.15;1.30;;;;;;;;;;5024250;28;20411;-55
2022/05/12 12:17:35;;;;;;;3.83;1.27;;;;;;;;;;5025304;28;20709;-53
2022/05/12 12:20:08;;;;;;;5.80;1.40;;;;;;;;;;5024610;28;20482;-55
2022/05/12 12:22:51;;;;;;;5.10;1.42;;;;;;;;;;5023135;28;20594;-55
2022/05/12 12:25:30;;;;;;;3.03;1.35;;;;;;;;;;5021902;28;20412;-54
2022/05/12 12:27:59;;;;;;;3.17;1.17;;;;;;;;;;5022361;28;20502;-52
2022/05/12 12:30:31;;;;;;;3.55;1.40;;;;;;;;;;5024676;28;20821;-56
2022/05/12 12:33:15;;;;;;;5.30;1.52;;;;;;;;;;5025581;28;20413;-55
2022/05/12 12:35:53;;;;;;;3.30;1.17;;;;;;;;;;5023990;28;20384;-54
2022/05/12 12:38:46;;;;;;;2.22;1.02;;;17.90;99.90;;;;;;5024574;28;20687;-55
2022/05/12 12:41:19;;;;;;;3.43;1.17;;;18.30;99.90;;;;;;5023281;28;20791;-55
2022/05/12 12:43:56;;;;;;;4.30;1.30;;;18.60;99.90;;;;;;5025796;28;20785;-52
2022/05/12 12:46:26;;;;;;;2.73;1.20;;;18.90;99.90;;;;;;5026065;28;20787;-49
2022/05/12 12:49:10;;;;;;;4.40;1.10;;;19.30;99.90;;;;;;5024950;28;20473;-54
2022/05/12 12:51:38;;;;;;;4.20;1.13;;;19.50;99.90;;;;;;5024509;28;20395;-51
2022/05/12 12:57:11;;;;;;;5.32;1.42;;;19.40;99.90;;;;;;5052379;28;20688;-51
2022/05/12 12:59:45;;;;;;;3.00;1.23;;;19.30;99.90;;;;;;5035016;28;20378;-52
2022/05/12 13:02:30;;;;;;;3.17;1.15;;;19.30;99.90;;;;;;5053365;28;20442;-52
2022/05/12 13:05:01;;;;;;;3.35;1.27;;;19.50;99.90;;;;;;5035480;28;20393;-54
2022/05/12 13:07:31;;;;;;;4.10;1.10;;;19.80;99.90;;;;;;5034166;28;20416;-56
2022/05/12 13:09:58;;;;;;;4.03;1.50;;;19.70;99.90;;;;;;5031399;28;20523;-55
2022/05/12 13:12:26;;;;;;;3.25;1.23;;;19.30;99.90;;;;;;5048998;28;20454;-52
2022/05/12 13:14:53;;;;;;;2.63;1.00;;;19.00;99.90;;;;;;5031271;28;20484;-56
2022/05/12 13:17:37;;;;;;;4.72;1.10;;;19.20;99.90;;;;;;5030652;28;20485;-54
2022/05/12 13:20:14;;;;;;;4.72;1.05;;;19.70;99.90;;;;;;5048837;28;20397;-56
2022/05/12 13:23:17;;;;;;;3.42;1.35;;;20.20;99.90;;;;;;5031841;28;20389;-56
2022/05/12 13:25:56;;;;;;;1.98;0.95;;;20.70;99.90;;;;;;5031200;28;20475;-52
2022/05/12 13:28:38;;;;;;;2.47;0.98;;;20.40;99.90;;;;;;5031215;28;20381;-56
2022/05/12 13:31:21;;;;;;;3.60;1.20;;;20.40;99.90;;;;;;5030531;28;20390;-54
2022/05/12 13:34:22;;;;;;;3.25;1.00;;;20.30;99.90;;;;;;5049670;28;20520;-51
2022/05/12 13:40:03;;;;;;;5.18;1.23;;;19.60;99.90;;;;;;5049179;28;20545;-55
2022/05/12 13:42:36;;;;;;;3.00;1.17;;;19.70;99.90;;;;;;5030140;28;20393;-55
2022/05/12 13:45:08;;;;;;;8.77;1.45;;;19.60;99.90;;;;;;5048488;28;20822;-56
2022/05/12 13:47:46;;;;;;;3.80;1.23;;;19.80;99.90;;;;;;5031071;28;20467;-53
2022/05/12 13:50:19;;;;;;;2.40;1.20;;;20.10;99.90;;;;;;5050794;28;20385;-56
2022/05/12 14:00:00;;;;;;;2.85;1.10;;;19.90;99.90;;;;;;5049911;28;20361;-51
2022/05/12 14:02:36;;;;;;;3.28;1.30;;;19.80;99.90;;;;;;5045535;28;20401;-51
2022/05/12 14:05:04;;;;;;;3.73;1.30;;;19.80;99.90;;;;;;5041958;28;20386;-55
2022/05/12 14:07:30;;;;;;;4.15;1.52;;;19.90;99.90;;;;;;5043591;28;20487;-55
2022/05/12 14:10:09;;;;;;;3.75;1.50;;;20.00;99.90;;;;;;5026536;28;20684;-53
2022/05/12 14:12:34;;;;;;;3.90;1.40;;;19.80;99.90;;;;;;5028917;28;20918;-55
2022/05/12 14:20:33;;;;;;;4.60;1.52;;;19.70;99.90;;;;;;5043730;28;20396;-55
2022/05/12 14:22:58;;;;;;;4.43;1.77;;;19.60;99.90;;;;;;5044639;28;20396;-52
2022/05/12 14:25:29;;;;;;;3.38;1.58;;;19.80;99.90;;;;;;5027108;28;20385;-56
2022/05/12 14:27:55;;;;;;;4.95;1.42;;;20.00;99.90;;;;;;5026267;28;20442;-55
2022/05/12 14:30:22;;;;;;;6.15;1.88;;;20.10;99.90;;;;;;5024215;28;20385;-56
2022/05/12 14:33:00;;;;;;;3.90;1.63;;;20.10;99.90;;;;;;5043942;28;20397;-52
2022/05/12 14:35:28;;;;;;;6.05;1.73;;;20.20;99.90;;;;;;5025661;28;20408;-55
2022/05/12 14:37:54;;;;;;;5.07;1.75;;;20.50;99.90;;;;;;5024041;28;20930;-53
2022/05/12 14:40:24;;;;;;;4.32;1.33;;;20.40;99.90;;;;;;5023768;28;20401;-51
2022/05/12 14:42:50;;;;;;;3.93;1.60;;;20.30;99.90;;;;;;5026844;28;20426;-55
2022/05/12 14:45:17;;;;;;;4.73;1.67;;;20.10;99.90;;;;;;5025829;28;20452;-54
2022/05/12 14:47:44;;;;;;;5.50;1.47;;;20.10;99.90;;;;;;5042712;28;20390;-55
2022/05/12 14:50:13;;;;;;;4.07;1.40;;;20.00;99.90;;;;;;5025795;28;20396;-56
2022/05/12 14:52:39;;;;;;;3.20;1.33;;;19.60;99.90;;;;;;5029262;28;20908;-56
2022/05/12 14:55:05;;;;;;;4.82;1.77;;;19.50;99.90;;;;;;5029467;28;21038;-52
2022/05/12 14:57:31;;;;;;;3.40;1.20;;;19.30;99.90;;;;;;5030922;28;20373;-51
2022/05/12 15:00:00;;;;;;;3.65;1.55;;;19.20;99.90;;;;;;5049075;28;20386;-55
2022/05/12 15:02:40;;;;;;;4.78;1.50;;;19.50;99.90;;;;;;5050461;28;20432;-51
2022/05/12 15:05:09;;;;;;;6.10;1.70;;;19.50;99.90;;;;;;5048788;28;20696;-55
2022/05/12 15:10:56;;;;;;;5.90;1.77;;;19.20;99.90;;;;;;5050498;28;20847;-52
2022/05/12 15:13:25;;;;;;;2.97;1.30;;;19.20;99.90;;;;;;5050117;28;20406;-55
2022/05/12 15:15:53;;;;;;;4.73;1.67;;;19.20;99.90;;;;;;5035406;28;20388;-54
2022/05/12 15:18:19;;;;;;;7.63;1.75;;;19.30;99.90;;;;;;5037831;28;20385;-55
2022/05/12 15:20:44;;;;;;;8.90;1.70;;;19.30;99.90;;;;;;5037713;28;20385;-55
2022/05/12 15:23:10;;;;;;;3.67;1.37;;;19.40;99.90;;;;;;5036315;28;20381;-53
2022/05/12 15:25:35;;;;;;;5.28;1.73;;;19.40;99.90;;;;;;5053654;28;20940;-54
2022/05/12 15:28:01;;;;;;;7.87;1.87;;;19.30;99.90;;;;;;5036664;28;20399;-56
2022/05/12 15:31:23;;;;;;;4.90;1.90;;;19.20;99.90;;;;;;5054526;28;20380;-54
2022/05/12 15:34:23;;;;;;;8.10;1.85;;;19.10;99.90;;;;;;5057600;28;20409;-56